Time;durP1;ratioP1;P1;durP2;ratioP2;P2;SDS_P1;SDS_P2;PMS_P1;PMS_P2;Temp;Humidity;BMP_temperature;BMP_pressure;BME280_temperature;BME280_humidity;BME280_pressure;Samples;Min_cycle;Max_cycle;Signal;HPM_P1;HPM_P2
2022/06/24 00:02:15;;;;;;;8.82;5.18;;;;;;;18.54;65.85;101107.91;5035149;28;20054;-54
2022/06/24 00:04:54;;;;;;;7.65;5.10;;;;;;;18.51;65.79;101102.78;5035054;28;20056;-57
2022/06/24 00:07:31;;;;;;;7.22;4.82;;;;;;;18.46;65.99;101099.47;5035289;28;20049;-54
2022/06/24 00:10:14;;;;;;;7.47;4.97;;;;;;;18.44;66.17;101101.28;5014274;28;20060;-57
2022/06/24 00:12:41;;;;;;;8.63;5.00;;;;;;;18.41;66.29;101101.38;5014606;28;20042;-53
2022/06/24 00:15:11;;;;;;;6.97;4.60;;;;;;;18.41;66.26;101094.38;5015678;28;20061;-56
2022/06/24 00:17:48;;;;;;;8.32;4.70;;;;;;;18.40;66.32;101107.53;5034638;28;20707;-53
2022/06/24 00:20:26;;;;;;;6.85;4.75;;;;;;;18.38;66.26;101101.50;5035160;28;20081;-55
2022/06/24 00:22:57;;;;;;;8.85;4.90;;;;;;;18.34;66.23;101102.50;5034911;28;20045;-56
2022/06/24 00:25:33;;;;;;;6.72;4.60;;;;;;;18.31;66.31;101102.63;5034425;28;20518;-57
2022/06/24 00:28:04;;;;;;;7.35;4.70;;;;;;;18.25;66.10;101101.91;5034847;28;20050;-56
2022/06/24 00:30:52;;;;;;;9.18;5.43;;;;;;;18.22;66.21;101099.41;5034288;28;20494;-55
2022/06/24 00:33:29;;;;;;;10.32;5.90;;;;;;;18.19;66.52;101101.25;5034493;28;20045;-56
2022/06/24 00:36:06;;;;;;;7.80;5.03;;;;;;;18.17;66.60;101103.91;5034446;28;20053;-56
2022/06/24 00:38:37;;;;;;;12.13;5.53;;;;;;;18.18;66.53;101095.13;5014004;28;20406;-57
2022/06/24 00:41:14;;;;;;;7.55;5.30;;;;;;;18.19;66.49;101103.88;5014140;28;20068;-56
2022/06/24 00:43:44;;;;;;;9.88;5.90;;;;;;;18.15;66.41;101105.75;5033897;28;20115;-57
2022/06/24 00:46:21;;;;;;;8.68;5.57;;;;;;;18.16;66.54;101110.06;5034012;28;20418;-54
2022/06/24 00:48:50;;;;;;;7.15;5.13;;;;;;;18.14;66.59;101104.03;5033708;28;20072;-55
2022/06/24 00:51:20;;;;;;;8.35;5.43;;;;;;;18.14;66.73;101097.91;5034462;28;20064;-57
2022/06/24 00:53:51;;;;;;;6.25;4.78;;;;;;;18.14;66.72;101097.91;5033793;28;20046;-52
2022/06/24 00:56:25;;;;;;;7.53;5.25;;;;;;;18.12;66.68;101097.97;5034229;28;20065;-54
2022/06/24 00:58:56;;;;;;;8.68;5.20;;;;;;;18.11;66.82;101091.00;5034012;28;20054;-53
2022/06/24 01:01:29;;;;;;;9.10;5.72;;;;;;;18.11;66.83;101092.78;5033459;28;20393;-54
2022/06/24 01:03:58;;;;;;;7.68;5.57;;;;;;;18.10;66.65;101101.56;5033552;28;20147;-56
2022/06/24 01:06:27;;;;;;;8.63;4.97;;;;;;;18.09;66.88;101094.59;5033825;28;20057;-56
2022/06/24 01:08:58;;;;;;;8.43;5.00;;;;;;;18.07;66.80;101097.28;5033808;28;20107;-55
2022/06/24 01:11:41;;;;;;;6.93;5.15;;;;;;;18.08;66.82;101101.63;5033736;28;20081;-55
2022/06/24 01:14:18;;;;;;;7.68;5.30;;;;;;;18.08;66.96;101098.13;5033643;28;20076;-57
2022/06/24 01:19:28;;;;;;;6.63;4.85;;;;;;;18.07;66.92;101092.03;5033299;28;20672;-57
2022/06/24 01:22:05;;;;;;;8.43;5.07;;;;;;;18.06;66.84;101090.31;5033686;28;20049;-57
2022/06/24 01:24:33;;;;;;;6.93;4.75;;;;;;;18.03;67.09;101092.19;5033371;28;20446;-57
2022/06/24 01:27:04;;;;;;;7.93;4.97;;;;;;;18.01;67.09;101092.22;5033623;28;20053;-57
2022/06/24 01:29:34;;;;;;;9.00;5.35;;;;;;;18.00;67.34;101095.75;5033631;28;20060;-57
2022/06/24 01:32:01;;;;;;;10.63;5.40;;;;;;;18.01;67.60;101097.47;5033647;28;20053;-58
2022/06/24 01:34:28;;;;;;;8.40;5.85;;;;;;;18.03;67.57;101090.41;5033436;28;20049;-54
2022/06/24 01:36:56;;;;;;;14.18;6.10;;;;;;;18.03;67.58;101089.56;5033346;28;20056;-57
2022/06/24 01:39:25;;;;;;;7.65;5.03;;;;;;;18.01;67.62;101092.22;5033486;28;20053;-58
2022/06/24 01:41:55;;;;;;;8.93;5.63;;;;;;;18.02;67.98;101091.31;5033505;28;20397;-57
2022/06/24 01:44:25;;;;;;;8.00;5.70;;;;;;;18.03;68.12;101090.41;5032509;28;20053;-58
2022/06/24 01:46:55;;;;;;;11.25;5.72;;;;;;;18.01;68.23;101091.38;5019466;28;20136;-57
2022/06/24 01:49:25;;;;;;;9.90;5.50;;;;;;;18.00;68.47;101090.53;5032822;28;20068;-57
2022/06/24 01:51:59;;;;;;;7.85;5.55;;;;;;;18.03;68.48;101098.28;5032704;28;20358;-58
2022/06/24 01:54:31;;;;;;;8.63;5.33;;;;;;;18.02;68.50;101096.56;5033065;28;20100;-57
2022/06/24 01:57:01;;;;;;;9.00;5.78;;;;;;;18.03;68.67;101100.06;5032837;28;20053;-58
2022/06/24 01:59:30;;;;;;;10.57;5.50;;;;;;;18.03;68.70;101095.66;5032827;28;20057;-54
2022/06/24 02:02:00;;;;;;;7.82;4.35;;;;;;;18.03;68.72;101100.06;5023874;28;20100;-56
2022/06/24 02:04:30;;;;;;;8.05;5.05;;;;;;;18.01;68.73;101101.88;5033229;28;20124;-54
2022/06/24 02:06:57;;;;;;;7.68;5.38;;;;;;;17.99;68.80;101099.28;5033234;28;20099;-55
2022/06/24 02:09:25;;;;;;;7.55;4.72;;;;;;;18.00;68.81;101094.91;5033301;28;20136;-57
2022/06/24 02:14:43;;;;;;;9.38;4.60;;;;;;;18.00;69.05;101095.75;5033069;28;20143;-58
2022/06/24 02:17:12;;;;;;;8.88;5.55;;;;;;;18.00;68.99;101098.38;5033221;28;20059;-57
2022/06/24 02:19:42;;;;;;;6.88;4.53;;;;;;;18.01;69.22;101094.84;5033103;28;20045;-57
2022/06/24 02:22:10;;;;;;;10.98;5.20;;;;;;;18.00;69.05;101090.53;5032969;28;20053;-58
2022/06/24 02:24:36;;;;;;;10.68;4.93;;;;;;;18.01;68.98;101096.63;5033044;28;20077;-56
2022/06/24 02:27:20;;;;;;;8.10;4.35;;;;;;;18.01;68.99;101092.22;5033263;28;20092;-57
2022/06/24 02:29:48;;;;;;;9.70;4.75;;;;;;;17.99;69.00;101101.91;5033215;28;20060;-56
2022/06/24 02:32:16;;;;;;;6.55;4.55;;;;;;;18.01;69.22;101092.22;5033243;28;20068;-56
2022/06/24 02:34:46;;;;;;;7.47;4.55;;;;;;;18.04;69.22;101097.38;5032817;28;20060;-57
2022/06/24 02:37:16;;;;;;;6.60;4.80;;;;;;;18.03;69.11;101098.28;5033280;28;20057;-57
2022/06/24 02:39:47;;;;;;;5.40;3.90;;;;;;;18.04;69.25;101100.00;5033071;28;20073;-58
2022/06/24 02:42:18;;;;;;;7.35;4.93;;;;;;;18.05;69.30;101098.22;5032730;28;20497;-57
2022/06/24 02:44:45;;;;;;;6.45;4.55;;;;;;;18.06;69.25;101097.31;5032504;28;20041;-54
2022/06/24 02:47:16;;;;;;;5.03;4.05;;;;;;;18.07;69.13;101102.53;5032642;28;20061;-54
2022/06/24 02:49:44;;;;;;;5.85;4.55;;;;;;;18.07;69.28;101102.53;5032565;28;20053;-54
2022/06/24 02:52:16;;;;;;;7.75;4.80;;;;;;;18.11;69.44;101111.16;5032986;28;20060;-55
2022/06/24 02:54:46;;;;;;;7.70;4.80;;;;;;;18.14;69.44;101103.16;5032917;28;20054;-54
2022/06/24 02:57:26;;;;;;;8.52;4.38;;;;;;;18.17;69.11;101108.31;5032899;28;20066;-55
2022/06/24 02:59:55;;;;;;;8.15;5.43;;;;;;;18.18;69.47;101105.63;5032881;28;20061;-54
2022/06/24 03:02:22;;;;;;;9.48;5.47;;;;;;;18.22;69.43;101103.78;5032917;28;20050;-54
2022/06/24 03:04:50;;;;;;;8.10;5.13;;;;;;;18.29;69.40;101103.53;5032500;28;20056;-54
2022/06/24 03:07:18;;;;;;;8.57;5.40;;;;;;;18.35;69.18;101109.47;5033033;28;20053;-56
2022/06/24 03:09:54;;;;;;;7.75;5.28;;;;;;;18.42;69.38;101109.22;5032785;28;20049;-57
2022/06/24 03:12:24;;;;;;;6.28;4.80;;;;;;;18.49;69.12;101104.59;5032698;28;20049;-57
2022/06/24 03:14:54;;;;;;;7.30;5.13;;;;;;;18.57;69.01;101107.81;5032615;28;20049;-58
2022/06/24 03:17:24;;;;;;;8.80;5.10;;;;;;;18.66;68.79;101104.88;5033609;28;20045;-58
2022/06/24 03:19:52;;;;;;;8.90;5.00;;;;;;;18.73;68.61;101109.03;5036257;28;20054;-58
2022/06/24 03:22:22;;;;;;;10.10;5.38;;;;;;;18.80;68.45;101099.16;5036504;28;20053;-54
2022/06/24 03:24:50;;;;;;;11.40;5.60;;;;;;;18.87;68.40;101100.66;5036290;28;20041;-56
2022/06/24 03:27:20;;;;;;;12.10;6.00;;;;;;;18.96;68.11;101099.44;5036134;28;20045;-57
2022/06/24 03:29:56;;;;;;;9.40;4.78;;;;;;;19.04;67.64;101107.88;5035978;28;20045;-57
2022/06/24 03:32:26;;;;;;;8.13;4.95;;;;;;;19.10;67.49;101105.03;5036321;28;20104;-55
2022/06/24 03:34:54;;;;;;;9.60;5.72;;;;;;;19.20;67.24;101095.88;5035785;28;20477;-55
2022/06/24 03:37:23;;;;;;;12.32;5.15;;;;;;;19.29;67.06;101097.31;5035731;28;20049;-56
2022/06/24 03:39:51;;;;;;;7.50;5.13;;;;;;;19.39;66.57;101102.16;5036056;28;20081;-58
2022/06/24 03:42:20;;;;;;;12.88;5.10;;;;;;;19.47;66.38;101102.72;5035890;28;20065;-57
2022/06/24 03:44:48;;;;;;;11.65;5.53;;;;;;;19.61;66.22;101106.59;5035330;28;20446;-57
2022/06/24 03:47:18;;;;;;;8.30;5.20;;;;;;;19.73;65.89;101108.72;5035331;28;20057;-58
2022/06/24 03:49:50;;;;;;;8.38;4.78;;;;;;;19.85;65.44;101108.25;5035566;28;20063;-58
2022/06/24 03:52:21;;;;;;;7.85;5.13;;;;;;;19.98;65.08;101111.25;5035576;28;20417;-57
2022/06/24 03:54:48;;;;;;;8.02;4.60;;;;;;;20.12;65.00;101107.09;5035208;28;20462;-58
2022/06/24 03:57:17;;;;;;;9.05;4.80;;;;;;;20.25;64.22;101117.13;5035700;28;20057;-56
2022/06/24 03:59:47;;;;;;;7.28;5.15;;;;;;;20.35;63.98;101114.06;5035448;28;20059;-57
2022/06/24 04:02:24;;;;;;;9.80;5.15;;;;;;;20.46;63.38;101116.25;5035119;28;20371;-57
2022/06/24 04:04:52;;;;;;;8.38;5.05;;;;;;;20.56;63.31;101117.56;5035467;28;20049;-57
2022/06/24 04:07:22;;;;;;;12.05;5.38;;;;;;;20.71;62.83;101105.50;5034980;28;20536;-57
2022/06/24 04:09:51;;;;;;;8.23;5.38;;;;;;;20.86;62.43;101114.50;5035349;28;20240;-58
2022/06/24 04:12:20;;;;;;;9.50;4.90;;;;;;;21.01;61.93;101109.41;5034916;28;20389;-54
2022/06/24 04:17:48;;;;;;;8.32;5.35;;;;;;;21.38;60.94;101113.88;5035029;28;20107;-58
2022/06/24 04:20:18;;;;;;;7.53;5.05;;;;;;;21.55;60.36;101114.84;5034961;28;20068;-56
2022/06/24 04:22:50;;;;;;;7.82;5.00;;;;;;;21.72;60.00;101114.88;5035033;28;20504;-57
2022/06/24 04:25:20;;;;;;;7.95;5.18;;;;;;;21.88;59.68;101123.78;5035209;28;20252;-57
2022/06/24 04:27:50;;;;;;;11.43;5.18;;;;;;;22.07;59.36;101117.59;5035101;28;20164;-58
2022/06/24 04:30:20;;;;;;;8.70;4.88;;;;;;;22.27;59.01;101120.09;5033928;28;20068;-57
2022/06/24 04:32:51;;;;;;;8.57;4.88;;;;;;;22.50;58.52;101117.16;5034730;28;20561;-57
2022/06/24 04:35:26;;;;;;;7.43;4.80;;;;;;;22.71;58.05;101120.44;5034568;28;20360;-58
2022/06/24 04:37:53;;;;;;;9.38;4.78;;;;;;;22.92;57.57;101121.16;5034870;28;20057;-57
2022/06/24 04:40:21;;;;;;;7.85;5.32;;;;;;;23.11;57.06;101121.00;5034525;28;20060;-57
2022/06/24 04:42:52;;;;;;;7.03;4.88;;;;;;;23.24;56.65;101136.13;5034490;28;20049;-55
2022/06/24 04:45:20;;;;;;;10.07;5.20;;;;;;;23.34;56.44;101119.72;5034219;28;20466;-58
2022/06/24 04:47:54;;;;;;;10.85;6.13;;;;;;;23.56;55.96;101130.88;5033960;28;20057;-54
2022/06/24 04:50:21;;;;;;;9.98;5.57;;;;;;;23.74;55.46;101137.78;5034114;28;20068;-55
2022/06/24 04:52:49;;;;;;;19.00;6.00;;;;;;;23.91;55.21;101132.38;5034675;28;20046;-54
2022/06/24 04:55:25;;;;;;;8.60;5.43;;;;;;;24.11;54.88;101130.38;5034697;28;20049;-54
2022/06/24 04:57:53;;;;;;;9.63;5.80;;;;;;;24.30;54.40;101130.19;5034538;28;20049;-55
2022/06/24 05:00:23;;;;;;;11.02;5.97;;;;;;;24.43;53.86;101136.44;5034583;28;20060;-56
2022/06/24 05:02:53;;;;;;;8.85;5.05;;;;;;;24.62;53.40;101139.72;5034360;28;20136;-58
2022/06/24 05:05:23;;;;;;;11.23;6.15;;;;;;;24.83;52.87;101140.19;5034496;28;20049;-58
2022/06/24 05:07:50;;;;;;;7.35;4.63;;;;;;;25.02;52.44;101132.88;5033928;28;20673;-56
2022/06/24 05:10:18;;;;;;;14.25;5.90;;;;;;;25.23;51.87;101129.81;5033930;28;20359;-57
2022/06/24 05:12:48;;;;;;;6.95;5.03;;;;;;;25.36;51.62;101130.72;5034336;28;20053;-58
2022/06/24 05:15:15;;;;;;;8.32;5.35;;;;;;;25.55;51.33;101125.97;5034012;28;20455;-58
2022/06/24 05:17:44;;;;;;;8.15;5.45;;;;;;;25.71;50.75;101124.03;5034098;28;20053;-57
2022/06/24 05:20:14;;;;;;;11.32;5.15;;;;;;;25.92;50.58;101118.25;5033905;28;20053;-56
2022/06/24 05:22:44;;;;;;;6.80;4.80;;;;;;;26.14;49.91;101123.88;5034027;28;20053;-57
2022/06/24 05:25:14;;;;;;;13.57;5.47;;;;;;;26.31;48.93;101126.22;5033829;28;20050;-57
2022/06/24 05:27:44;;;;;;;7.20;5.05;;;;;;;26.46;48.96;101129.66;5033865;28;20057;-58
2022/06/24 05:30:15;;;;;;;10.02;5.43;;;;;;;26.62;48.19;101134.81;5033955;28;20049;-57
2022/06/24 05:32:45;;;;;;;9.60;5.53;;;;;;;26.74;47.48;101128.63;5033693;28;20061;-58
2022/06/24 05:35:16;;;;;;;6.63;4.88;;;;;;;26.87;47.46;101134.78;5033552;28;20594;-58
2022/06/24 05:37:44;;;;;;;56.67;8.30;;;;;;;27.03;46.82;101129.25;5033522;28;20063;-57
2022/06/24 05:40:12;;;;;;;11.25;5.00;;;;;;;27.19;46.39;101123.72;5033085;28;20459;-57
2022/06/24 05:42:43;;;;;;;10.27;4.65;;;;;;;27.31;45.94;101128.16;5033185;28;20064;-58
2022/06/24 05:45:11;;;;;;;23.45;6.00;;;;;;;27.43;45.76;101132.59;5032582;28;20069;-55
2022/06/24 05:47:40;;;;;;;9.85;4.75;;;;;;;27.55;45.21;101126.38;5025897;28;20069;-58
2022/06/24 05:50:11;;;;;;;7.45;4.80;;;;;;;27.69;44.84;101129.88;5033101;28;20508;-58
2022/06/24 05:55:30;;;;;;;6.95;4.13;;;;;;;27.94;44.38;101132.41;5032112;28;20049;-59
2022/06/24 05:58:09;;;;;;;8.05;4.30;;;;;;;28.05;44.04;101124.47;5030381;28;20057;-58
2022/06/24 06:00:40;;;;;;;12.07;4.40;;;;;;;28.19;43.81;101126.97;5032376;28;20053;-59
2022/06/24 06:03:07;;;;;;;8.45;4.55;;;;;;;28.30;43.31;101118.19;5031731;28;20560;-58
2022/06/24 06:05:43;;;;;;;8.75;4.20;;;;;;;28.43;43.02;101120.75;5032685;28;20046;-59
2022/06/24 06:08:13;;;;;;;11.25;4.15;;;;;;;28.57;42.65;101129.38;5033081;28;20055;-58
2022/06/24 06:10:43;;;;;;;7.68;3.33;;;;;;;28.70;42.32;101129.28;5032785;28;20111;-59
2022/06/24 06:13:12;;;;;;;12.00;4.25;;;;;;;28.81;42.17;101123.97;5025854;28;20072;-59
2022/06/24 06:15:40;;;;;;;6.22;3.65;;;;;;;28.95;41.77;101122.03;5032118;28;20049;-59
2022/06/24 06:18:07;;;;;;;7.72;3.70;;;;;;;29.04;42.02;101129.31;5031195;28;20140;-57
2022/06/24 06:20:36;;;;;;;4.40;3.45;;;;;;;29.15;41.44;101124.00;5031399;28;20042;-58
2022/06/24 06:23:06;;;;;;;5.38;4.05;;;;;;;29.26;41.01;101123.97;5031038;28;20067;-54
2022/06/24 06:25:34;;;;;;;8.00;3.88;;;;;;;29.37;40.79;101129.28;5030653;28;20467;-59
2022/06/24 06:28:02;;;;;;;62.58;7.05;;;;;;;29.45;40.18;101118.88;5030575;28;20060;-58
2022/06/24 06:30:30;;;;;;;10.27;3.80;;;;;;;29.56;40.04;101119.81;5030813;28;20065;-60
2022/06/24 06:32:57;;;;;;;9.40;3.72;;;;;;;29.62;39.88;101119.28;5029774;28;20455;-61
2022/06/24 06:35:24;;;;;;;4.47;3.70;;;;;;;29.71;39.64;101129.25;5030396;28;20049;-57
2022/06/24 06:37:53;;;;;;;5.40;3.00;;;;;;;29.75;39.20;101131.53;5030771;28;20045;-54
2022/06/24 06:40:19;;;;;;;5.97;3.20;;;;;;;29.82;38.52;101127.38;5030615;28;20866;-55
2022/06/24 06:42:55;;;;;;;6.43;3.03;;;;;;;29.92;38.67;101132.81;5028936;28;20057;-52
2022/06/24 06:45:24;;;;;;;11.75;3.70;;;;;;;30.04;38.61;101134.47;5028490;28;20382;-52
2022/06/24 06:47:52;;;;;;;5.55;3.60;;;;;;;30.17;38.47;101126.28;5030404;28;20080;-54
2022/06/24 06:50:23;;;;;;;4.93;3.53;;;;;;;30.30;38.30;101131.44;5030696;28;20099;-55
2022/06/24 06:52:53;;;;;;;4.45;3.40;;;;;;;30.42;38.21;101131.25;5032438;28;20064;-52
2022/06/24 06:55:23;;;;;;;19.25;4.60;;;;;;;30.52;38.57;101130.47;5034776;28;20073;-54
2022/06/24 06:57:56;;;;;;;9.13;3.97;;;;;;;30.63;38.34;101125.06;5032951;28;20053;-56
2022/06/24 07:00:23;;;;;;;9.15;5.45;;;;;;;30.74;38.49;101131.19;5034066;28;20050;-57
2022/06/24 07:02:52;;;;;;;9.45;4.25;;;;;;;30.88;38.23;101126.47;5036198;28;20049;-57
2022/06/24 07:05:22;;;;;;;7.65;4.28;;;;;;;30.97;38.17;101120.31;5035968;28;20042;-57
2022/06/24 07:07:51;;;;;;;6.93;4.30;;;;;;;31.07;37.98;101121.19;5036244;28;20053;-57
2022/06/24 07:10:19;;;;;;;6.30;4.60;;;;;;;31.19;38.08;101120.13;5036186;28;20057;-58
2022/06/24 07:12:47;;;;;;;81.70;9.75;;;;;;;31.31;37.79;101113.69;5036122;28;20053;-58
2022/06/24 07:15:23;;;;;;;15.25;5.18;;;;;;;31.45;37.07;101108.91;5035778;28;20053;-58
2022/06/24 07:17:52;;;;;;;13.13;4.70;;;;;;;31.60;37.18;101112.88;5035203;28;20136;-57
2022/06/24 07:20:23;;;;;;;7.40;4.35;;;;;;;31.73;36.80;101108.13;5036121;28;20064;-57
2022/06/24 07:22:53;;;;;;;8.10;4.07;;;;;;;31.81;35.91;101113.66;5034936;28;20356;-58
2022/06/24 07:25:22;;;;;;;20.10;6.00;;;;;;;31.85;36.33;101111.53;5036123;28;20057;-57
2022/06/24 07:28:04;;;;;;;8.15;4.80;;;;;;;31.91;36.01;101109.13;5035614;28;20057;-55
2022/06/24 07:30:47;;;;;;;6.82;4.85;;;;;;;32.05;35.47;101113.22;5035842;28;20136;-56
2022/06/24 07:33:17;;;;;;;6.93;4.80;;;;;;;32.18;35.71;101118.28;5021292;28;20049;-57
2022/06/24 07:35:44;;;;;;;7.15;4.32;;;;;;;32.28;35.99;101103.91;5035659;28;20512;-56
2022/06/24 07:38:13;;;;;;;47.10;7.57;;;;;;;32.41;35.40;101114.31;5035311;28;20060;-56
2022/06/24 07:40:40;;;;;;;8.23;4.72;;;;;;;32.47;35.33;101107.53;5035454;28;20473;-56
2022/06/24 07:43:08;;;;;;;14.00;4.63;;;;;;;32.53;35.31;101115.84;5035253;28;20137;-52
2022/06/24 07:45:40;;;;;;;7.53;3.80;;;;;;;32.66;34.48;101117.34;5035533;28;20038;-53
2022/06/24 07:48:10;;;;;;;50.42;7.25;;;;;;;32.71;34.29;101113.22;5034596;28;20088;-53
2022/06/24 07:50:38;;;;;;;5.93;3.67;;;;;;;32.77;34.11;101114.47;5035420;28;20148;-54
2022/06/24 07:53:06;;;;;;;5.10;3.83;;;;;;;32.85;33.87;101106.59;5019448;28;20128;-54
2022/06/24 07:58:23;;;;;;;8.07;3.63;;;;;;;33.04;33.61;101100.28;5034970;28;20060;-53
2022/06/24 08:01:01;;;;;;;6.15;3.40;;;;;;;33.09;33.47;101104.22;5034918;28;20085;-52
2022/06/24 08:03:29;;;;;;;5.93;3.35;;;;;;;33.23;33.41;101110.91;5035249;28;20053;-56
2022/06/24 08:06:00;;;;;;;7.43;3.75;;;;;;;33.36;32.61;101099.84;5034714;28;20045;-56
2022/06/24 08:08:27;;;;;;;7.97;3.83;;;;;;;33.41;32.35;101098.41;5035342;28;20076;-57
2022/06/24 08:10:57;;;;;;;8.25;3.58;;;;;;;33.45;32.26;101098.94;5035363;28;20049;-58
2022/06/24 08:13:25;;;;;;;7.60;3.38;;;;;;;33.48;32.31;101098.63;5034923;28;20132;-57
2022/06/24 08:16:07;;;;;;;6.72;3.17;;;;;;;33.53;31.97;101090.97;5034892;28;20049;-55
2022/06/24 08:18:34;;;;;;;5.40;3.40;;;;;;;33.68;32.13;101093.94;5034974;28;20060;-57
2022/06/24 08:21:02;;;;;;;8.13;3.28;;;;;;;33.79;31.84;101091.88;5033830;28;20038;-52
2022/06/24 08:23:32;;;;;;;7.90;2.90;;;;;;;33.92;31.19;101090.69;5034858;28;20063;-57
2022/06/24 08:26:00;;;;;;;13.32;3.17;;;;;;;33.98;30.83;101090.91;5034437;28;20474;-52
2022/06/24 08:28:30;;;;;;;9.65;3.00;;;;;;;34.04;30.63;101084.91;5034512;28;20063;-53
2022/06/24 08:31:10;;;;;;;9.90;3.13;;;;;;;34.15;29.82;101081.09;5034778;28;20085;-52
2022/06/24 08:33:38;;;;;;;4.72;2.97;;;;;;;34.17;30.27;101084.47;5034757;28;20123;-57
2022/06/24 08:36:07;;;;;;;3.53;2.38;;;;;;;34.25;30.14;101076.47;5034136;28;20370;-55
2022/06/24 08:38:36;;;;;;;4.85;3.10;;;;;;;34.37;30.05;101075.25;5034713;28;20056;-55
2022/06/24 08:41:05;;;;;;;9.57;3.35;;;;;;;34.47;29.91;101070.59;5018670;28;20059;-54
2022/06/24 08:43:35;;;;;;;7.55;2.92;;;;;;;34.57;29.71;101069.63;5034708;28;20050;-57
2022/06/24 08:46:07;;;;;;;4.20;2.53;;;;;;;34.64;29.25;101055.38;5034719;28;20049;-57
2022/06/24 08:48:41;;;;;;;8.95;2.40;;;;;;;34.67;29.18;101059.59;5029753;28;20061;-57
2022/06/24 08:51:12;;;;;;;4.72;2.50;;;;;;;34.65;29.12;101056.22;5034478;28;20394;-57
2022/06/24 08:53:39;;;;;;;2.85;2.30;;;;;;;34.59;28.91;101062.25;5035126;28;20068;-57
2022/06/24 08:56:08;;;;;;;4.57;2.33;;;;;;;34.63;28.63;101052.84;5034981;28;20045;-58
2022/06/24 08:58:38;;;;;;;64.18;7.40;;;;;;;35.06;27.72;101055.41;5034841;28;20140;-53
2022/06/24 09:01:06;;;;;;;5.53;2.40;;;;;;;35.48;26.82;101054.53;5018626;28;20481;-55
2022/06/24 09:03:42;;;;;;;2.85;2.08;;;;;;;35.43;27.00;101046.09;5034379;28;20053;-56
2022/06/24 09:06:18;;;;;;;5.13;2.40;;;;;;;34.81;27.48;101046.34;5033375;28;20470;-57
2022/06/24 09:08:49;;;;;;;17.73;4.15;;;;;;;34.41;28.18;101055.09;5033935;28;20042;-58
2022/06/24 09:11:18;;;;;;;27.58;3.38;;;;;;;34.15;28.46;101048.81;5032812;28;20049;-54
2022/06/24 09:13:49;;;;;;;4.07;2.10;;;;;;;33.98;29.19;101042.50;5033310;28;20115;-54
2022/06/24 09:16:29;;;;;;;4.75;2.30;;;;;;;33.93;28.94;101033.22;5033890;28;20053;-56
2022/06/24 09:19:06;;;;;;;9.57;2.20;;;;;;;33.89;29.60;101031.84;5033863;28;20111;-54
2022/06/24 09:21:39;;;;;;;9.68;2.70;;;;;;;33.85;29.51;101036.69;5033955;28;20049;-60
2022/06/24 09:24:10;;;;;;;6.57;2.55;;;;;;;33.83;29.60;101044.06;5033764;28;20064;-56
2022/06/24 09:26:41;;;;;;;4.80;2.33;;;;;;;33.72;29.42;101038.88;5033910;28;20046;-57
2022/06/24 09:29:17;;;;;;;4.78;2.50;;;;;;;33.59;29.69;101036.59;5018107;28;20063;-57
2022/06/24 09:31:46;;;;;;;9.05;2.47;;;;;;;33.52;30.01;101033.69;5033873;28;20057;-56
2022/06/24 09:34:18;;;;;;;4.38;2.40;;;;;;;33.53;29.74;101031.84;5033900;28;20060;-52
2022/06/24 09:36:55;;;;;;;33.58;3.72;;;;;;;33.52;29.69;101035.53;5033630;28;20530;-53
2022/06/24 09:39:25;;;;;;;20.13;3.13;;;;;;;33.47;29.42;101037.84;5033852;28;20041;-58
2022/06/24 09:41:57;;;;;;;5.70;2.50;;;;;;;33.36;29.85;101030.00;5033232;28;20045;-57
2022/06/24 09:44:27;;;;;;;6.32;2.53;;;;;;;33.20;30.18;101026.09;5033133;28;20049;-57
2022/06/24 09:47:08;;;;;;;25.65;3.70;;;;;;;33.08;30.44;101021.94;5032291;28;20371;-57
2022/06/24 09:49:39;;;;;;;5.72;2.30;;;;;;;33.08;30.73;101013.91;5032966;28;20045;-58
2022/06/24 09:52:10;;;;;;;5.20;2.08;;;;;;;33.06;30.34;101010.50;5032902;28;20053;-56
2022/06/24 09:54:41;;;;;;;7.63;2.38;;;;;;;32.97;30.48;101014.13;5033121;28;20053;-52
2022/06/24 09:57:10;;;;;;;44.33;5.57;;;;;;;32.89;30.74;101003.28;5017832;28;20045;-57
2022/06/24 10:02:40;;;;;;;6.97;2.33;;;;;;;32.90;30.74;101002.28;5032759;28;20060;-58
2022/06/24 10:05:10;;;;;;;;;;;;;;;32.87;30.87;100994.53;5016100;28;20059;-56
2022/06/24 10:07:38;;;;;;;4.95;2.20;;;;;;;32.90;31.48;101002.28;5031975;28;20004;-57
2022/06/24 10:10:07;;;;;;;4.03;2.28;;;;;;;32.93;31.26;101004.66;5033305;28;20056;-57
2022/06/24 10:12:39;;;;;;;19.23;4.28;;;;;;;32.90;31.34;100999.59;5033800;28;20049;-59
2022/06/24 10:15:07;;;;;;;3.75;2.25;;;;;;;32.85;30.90;100996.53;5032936;28;20053;-56
2022/06/24 10:17:41;;;;;;;3.95;2.55;;;;;;;32.71;31.26;100997.81;5034366;28;20049;-56
2022/06/24 10:20:11;;;;;;;19.77;2.97;;;;;;;32.53;31.81;101005.84;5033304;28;20214;-56
2022/06/24 10:22:50;;;;;;;3.72;2.22;;;;;;;32.39;32.21;100992.91;5032836;28;20045;-54
2022/06/24 10:25:46;;;;;;;30.30;4.22;;;;;;;32.37;31.98;100992.22;5032403;28;20085;-57
2022/06/24 10:28:18;;;;;;;44.17;5.50;;;;;;;32.36;32.12;100982.47;5035694;28;20054;-55
2022/06/24 10:31:01;;;;;;;12.65;2.90;;;;;;;32.45;31.88;100976.22;5037287;28;20476;-54
2022/06/24 10:33:36;;;;;;;3.47;2.33;;;;;;;32.46;31.13;100982.44;5035154;28;20379;-56
2022/06/24 10:36:08;;;;;;;3.53;2.13;;;;;;;32.33;31.82;100985.44;5036044;28;20064;-57
2022/06/24 10:38:37;;;;;;;62.88;6.40;;;;;;;32.29;31.54;100984.91;5037092;28;20060;-57
2022/06/24 10:41:10;;;;;;;3.53;2.10;;;;;;;32.24;31.76;100979.09;5036394;28;20061;-55
2022/06/24 10:43:40;;;;;;;2.78;1.85;;;;;;;32.16;31.67;100996.88;5037255;28;20053;-59
2022/06/24 10:46:20;;;;;;;17.63;2.45;;;;;;;32.05;31.88;100978.31;5030657;28;20107;-62
2022/06/24 10:49:03;;;;;;;7.53;2.58;;;;;;;31.88;30.98;100982.59;5036176;28;20065;-53
2022/06/24 10:51:34;;;;;;;4.15;1.92;;;;;;;31.63;31.91;100958.03;5036353;28;20468;-52
2022/06/24 10:54:15;;;;;;;5.68;2.00;;;;;;;31.52;31.75;100981.47;5036725;28;20052;-58
2022/06/24 10:56:47;;;;;;;5.05;2.00;;;;;;;31.41;31.83;100976.25;5036876;28;20088;-57
2022/06/24 10:59:21;;;;;;;5.38;1.90;;;;;;;31.44;32.10;100975.97;5036835;28;20045;-57
2022/06/24 11:01:52;;;;;;;4.97;1.70;;;;;;;31.42;31.84;100972.59;5036176;28;20378;-58
2022/06/24 11:04:35;;;;;;;2.65;1.85;;;;;;;31.38;31.47;100974.69;5036349;28;20053;-55
2022/06/24 11:07:21;;;;;;;8.25;2.28;;;;;;;31.34;31.75;100963.44;5036264;28;20049;-57
2022/06/24 11:09:52;;;;;;;10.52;2.30;;;;;;;31.14;32.15;100971.53;5035949;28;20056;-59
2022/06/24 11:12:39;;;;;;;4.22;1.67;;;;;;;30.89;32.13;100962.22;5034613;28;20182;-60
2022/06/24 11:15:15;;;;;;;4.75;1.83;;;;;;;30.73;33.09;100976.13;5019865;28;20474;-61
2022/06/24 11:17:53;;;;;;;22.80;2.50;;;;;;;30.69;32.73;100966.66;5036087;28;20049;-56
2022/06/24 11:20:22;;;;;;;10.80;2.13;;;;;;;30.72;32.87;100977.97;5035821;28;20053;-52
2022/06/24 11:22:50;;;;;;;39.60;4.88;;;;;;;30.69;32.80;100967.50;5035956;28;20045;-53
2022/06/24 11:25:19;;;;;;;11.07;2.05;;;;;;;30.75;32.45;100967.00;5038369;28;20045;-51
2022/06/24 11:27:46;;;;;;;51.30;5.53;;;;;;;30.81;32.93;100960.25;5038162;28;20088;-58
2022/06/24 11:30:13;;;;;;;5.88;1.83;;;;;;;30.82;32.67;100966.44;5035641;28;20049;-53
2022/06/24 11:32:58;;;;;;;22.58;3.03;;;;;;;30.81;32.11;100964.75;5035327;28;20065;-54
2022/06/24 11:35:40;;;;;;;4.68;2.00;;;;;;;30.81;32.07;100964.75;5035805;28;20144;-51
2022/06/24 11:38:19;;;;;;;3.80;1.35;;;;;;;30.75;32.29;100958.97;5035184;28;20083;-56
2022/06/24 11:40:50;;;;;;;6.97;1.85;;;;;;;30.71;31.87;100960.22;5035097;28;20076;-51
2022/06/24 11:43:26;;;;;;;4.18;1.90;;;;;;;30.63;32.25;100957.34;5034561;28;20473;-52
2022/06/24 11:46:00;;;;;;;10.00;2.15;;;;;;;30.56;32.34;100950.81;5035176;28;20128;-55
2022/06/24 11:48:30;;;;;;;20.13;3.63;;;;;;;30.45;32.51;100937.56;5034829;28;20057;-55
2022/06/24 11:51:07;;;;;;;6.47;1.70;;;;;;;30.39;32.54;100952.31;5035181;28;20295;-54
2022/06/24 11:53:40;;;;;;;8.18;2.30;;;;;;;30.28;32.13;100957.78;5035552;28;20046;-58
2022/06/24 11:56:12;;;;;;;6.07;1.40;;;;;;;30.22;32.66;100950.31;5034577;28;20107;-51
2022/06/24 11:58:43;;;;;;;423.73;32.67;;;;;;;30.18;32.02;100956.91;5035312;28;20085;-55
2022/06/24 12:01:12;;;;;;;9.43;1.90;;;;;;;30.09;31.35;100941.63;5035033;28;20387;-53